Time;durP1;ratioP1;P1;durP2;ratioP2;P2;SDS_P1;SDS_P2;PMS_P1;PMS_P2;Temp;Humidity;BMP_temperature;BMP_pressure;BME280_temperature;BME280_humidity;BME280_pressure;Samples;Min_cycle;Max_cycle;Signal;HPM_P1;HPM_P2
2022/06/22 00:00:46;;;;;;;12.02;10.88;;;;;;;26.00;75.75;98734.31;5069633;28;20202;-55
2022/06/22 00:03:13;;;;;;;14.05;10.10;;;;;;;25.96;75.85;98735.63;5069467;28;20585;-54
2022/06/22 00:05:48;;;;;;;12.02;10.05;;;;;;;25.88;75.88;98736.41;5069461;28;20206;-54
2022/06/22 00:08:20;;;;;;;12.52;10.80;;;;;;;25.91;75.99;98746.75;5069704;28;20211;-54
2022/06/22 00:10:52;;;;;;;10.57;9.60;;;;;;;25.85;76.15;98750.03;5069418;28;20286;-54
2022/06/22 00:13:22;;;;;;;12.25;10.45;;;;;;;25.81;75.94;98748.69;5069407;28;20196;-54
2022/06/22 00:15:51;;;;;;;10.88;9.57;;;;;;;25.81;76.12;98753.19;5067463;28;20319;-54
2022/06/22 00:18:26;;;;;;;11.13;10.13;;;;;;;25.79;75.98;98755.16;5069058;28;20314;-55
2022/06/22 00:20:57;;;;;;;10.70;9.32;;;;;;;25.67;75.85;98736.00;5069251;28;20227;-54
2022/06/22 00:23:28;;;;;;;10.07;9.18;;;;;;;25.75;76.00;98753.78;5069272;28;20194;-54
2022/06/22 00:26:05;;;;;;;11.02;9.98;;;;;;;25.71;76.34;98755.13;5069301;28;20199;-54
2022/06/22 00:28:35;;;;;;;13.00;10.20;;;;;;;25.72;76.11;98757.63;5069089;28;20210;-55
2022/06/22 00:31:13;;;;;;;15.45;10.65;;;;;;;25.67;76.16;98763.41;5069270;28;20206;-54
2022/06/22 00:33:40;;;;;;;15.38;10.38;;;;;;;25.71;76.27;98758.63;5069255;28;20195;-54
2022/06/22 00:36:19;;;;;;;11.23;9.35;;;;;;;25.67;76.33;98755.44;5070095;28;20202;-57
2022/06/22 00:38:46;;;;;;;10.45;9.43;;;;;;;25.70;76.11;98764.09;5073103;28;20200;-56
2022/06/22 00:41:19;;;;;;;10.23;9.40;;;;;;;25.72;75.54;98757.63;5073336;28;20233;-57
2022/06/22 00:43:46;;;;;;;11.13;10.15;;;;;;;25.73;75.59;98753.97;5073202;28;20286;-56
2022/06/22 00:46:16;;;;;;;10.43;9.50;;;;;;;25.63;75.44;98734.63;5073197;28;20230;-56
2022/06/22 00:48:43;;;;;;;11.07;10.00;;;;;;;25.74;75.37;98760.94;5073156;28;20245;-56
2022/06/22 00:51:18;;;;;;;11.63;10.45;;;;;;;25.72;75.48;98757.63;5072948;28;20271;-56
2022/06/22 00:53:54;;;;;;;10.98;9.93;;;;;;;25.71;75.40;98753.31;5072765;28;20198;-56
2022/06/22 00:56:40;;;;;;;11.15;10.07;;;;;;;25.64;75.17;98755.75;5072734;28;20207;-56
2022/06/22 00:59:19;;;;;;;12.15;9.90;;;;;;;25.67;75.59;98765.22;5072894;28;20207;-55
2022/06/22 01:01:51;;;;;;;12.27;9.38;;;;;;;25.60;75.60;98767.69;5072793;28;20636;-55
2022/06/22 01:04:24;;;;;;;10.30;9.60;;;;;;;25.59;75.26;98768.66;5072719;28;20195;-56
2022/06/22 01:06:58;;;;;;;11.82;9.63;;;;;;;25.55;75.45;98766.44;5072547;28;20231;-56
2022/06/22 01:09:33;;;;;;;10.77;9.55;;;;;;;25.59;75.16;98768.66;5072721;28;20221;-56
2022/06/22 01:12:22;;;;;;;12.60;10.32;;;;;;;25.59;75.34;98773.13;5072574;28;20211;-56
2022/06/22 01:15:00;;;;;;;10.55;9.63;;;;;;;25.63;75.06;98790.44;5072365;28;20687;-56
2022/06/22 01:17:31;;;;;;;11.13;10.02;;;;;;;25.55;75.22;98793.03;5072354;28;20216;-56
2022/06/22 01:20:06;;;;;;;10.90;9.75;;;;;;;25.56;75.20;98792.88;5072416;28;20239;-56
2022/06/22 01:22:52;;;;;;;10.68;9.65;;;;;;;25.45;75.77;98794.97;5072190;28;20198;-57
2022/06/22 01:25:37;;;;;;;14.43;9.85;;;;;;;25.44;75.65;98796.78;5072663;28;20218;-56
2022/06/22 01:28:06;;;;;;;10.85;9.95;;;;;;;25.41;75.82;98794.44;5072434;28;20200;-57
2022/06/22 01:30:38;;;;;;;11.18;10.07;;;;;;;25.43;75.10;98796.94;5072321;28;20203;-57
2022/06/22 01:33:09;;;;;;;11.77;10.60;;;;;;;25.46;75.43;98794.81;5072219;28;20200;-56
2022/06/22 01:35:39;;;;;;;12.18;10.45;;;;;;;25.37;75.15;98776.31;5072279;28;20195;-57
2022/06/22 01:38:14;;;;;;;13.40;10.10;;;;;;;25.39;75.52;98772.53;5071665;28;20212;-57
2022/06/22 01:40:46;;;;;;;11.15;9.88;;;;;;;25.39;75.00;98782.31;5069201;28;20195;-57
2022/06/22 01:43:23;;;;;;;11.05;10.02;;;;;;;25.37;75.15;98785.13;5071541;28;20226;-56
2022/06/22 01:45:56;;;;;;;11.45;9.95;;;;;;;25.39;74.80;98784.97;5071936;28;20639;-56
2022/06/22 01:48:30;;;;;;;12.05;9.52;;;;;;;25.33;74.50;98787.25;5071198;28;20198;-56
2022/06/22 01:51:02;;;;;;;11.93;10.15;;;;;;;25.26;74.35;98778.25;5071884;28;20291;-56
2022/06/22 01:53:34;;;;;;;11.07;9.70;;;;;;;25.35;74.17;98791.56;5072017;28;20198;-56
2022/06/22 01:56:08;;;;;;;11.07;10.07;;;;;;;25.31;74.55;98788.38;5071870;28;20204;-56
2022/06/22 01:58:49;;;;;;;10.38;9.57;;;;;;;25.33;73.80;98779.28;5071872;28;20733;-55
2022/06/22 02:01:24;;;;;;;10.63;9.60;;;;;;;25.32;73.33;98785.56;5071718;28;20198;-54
2022/06/22 02:04:18;;;;;;;11.77;9.77;;;;;;;25.31;73.87;98789.22;5071779;28;20210;-54
2022/06/22 02:09:54;;;;;;;11.45;10.38;;;;;;;25.23;74.34;98778.53;5071644;28;20331;-55
2022/06/22 02:12:28;;;;;;;12.10;9.57;;;;;;;25.25;74.25;98792.50;5071573;28;20207;-54
2022/06/22 02:15:02;;;;;;;10.63;9.60;;;;;;;25.19;74.81;98794.94;5071250;28;20749;-55
2022/06/22 02:17:35;;;;;;;12.23;9.55;;;;;;;25.06;75.64;98789.16;5071606;28;20637;-54
2022/06/22 02:20:32;;;;;;;10.55;9.60;;;;;;;25.05;76.62;98793.69;5071330;28;20198;-55
2022/06/22 02:23:05;;;;;;;13.40;10.43;;;;;;;25.02;76.85;98786.00;5071232;28;20202;-55
2022/06/22 02:25:36;;;;;;;13.52;9.75;;;;;;;24.96;77.46;98797.22;5071278;28;20544;-56
2022/06/22 02:28:04;;;;;;;11.15;10.07;;;;;;;24.92;78.11;98790.53;5071180;28;20192;-55
2022/06/22 02:30:35;;;;;;;11.15;9.85;;;;;;;24.83;78.63;98784.31;5071270;28;20196;-56
2022/06/22 02:33:02;;;;;;;12.15;11.05;;;;;;;24.80;78.95;98787.28;5071004;28;20196;-56
2022/06/22 02:35:29;;;;;;;11.95;10.43;;;;;;;24.75;78.91;98778.94;5071426;28;20581;-56
2022/06/22 02:38:04;;;;;;;15.32;10.75;;;;;;;24.72;79.35;98783.72;5071159;28;20722;-57
2022/06/22 02:44:29;;;;;;;11.60;10.10;;;;;;;24.67;79.47;98789.47;5071164;28;20249;-55
2022/06/22 02:46:14;;;;;;;12.15;10.95;;;;;;;24.67;79.59;98783.34;5070766;28;20196;-56
2022/06/22 02:48:44;;;;;;;11.25;10.15;;;;;;;24.64;79.63;98780.97;5070952;28;20193;-56
2022/06/22 02:51:18;;;;;;;16.70;10.88;;;;;;;24.62;80.04;98773.16;5070097;28;20208;-56
2022/06/22 02:53:47;;;;;;;16.85;10.57;;;;;;;24.69;79.71;98773.41;5069634;28;20671;-56
2022/06/22 02:56:19;;;;;;;11.35;10.27;;;;;;;24.71;79.16;98771.44;5069149;28;20597;-57
2022/06/22 02:58:46;;;;;;;11.18;9.93;;;;;;;24.72;79.11;98773.09;5068606;28;20218;-57
2022/06/22 03:01:17;;;;;;;12.30;10.00;;;;;;;24.77;78.62;98765.50;5069489;28;20574;-55
2022/06/22 03:03:51;;;;;;;15.25;10.82;;;;;;;24.84;78.19;98764.75;5069098;28;20195;-55
2022/06/22 03:06:21;;;;;;;14.32;9.43;;;;;;;24.75;78.00;98756.84;5069606;28;20279;-55
2022/06/22 03:08:50;;;;;;;10.27;9.38;;;;;;;24.88;77.68;98770.59;5066163;28;20196;-55
2022/06/22 03:11:18;;;;;;;11.68;9.95;;;;;;;24.85;77.88;98762.91;5067372;28;20202;-55
2022/06/22 03:13:50;;;;;;;11.43;9.80;;;;;;;24.91;77.46;98762.31;5068806;28;20223;-56
2022/06/22 03:16:26;;;;;;;12.20;9.95;;;;;;;24.98;77.00;98768.72;5065346;28;20224;-57
2022/06/22 03:18:55;;;;;;;16.08;10.52;;;;;;;25.04;76.29;98776.06;5067958;28;20250;-57
2022/06/22 03:21:22;;;;;;;10.20;9.38;;;;;;;25.18;75.61;98772.84;5068342;28;20595;-57
2022/06/22 03:23:52;;;;;;;13.38;10.80;;;;;;;25.31;74.66;98770.63;5068591;28;20198;-57
2022/06/22 03:26:22;;;;;;;13.90;9.50;;;;;;;25.49;73.82;98767.09;5065994;28;20249;-56
2022/06/22 03:28:55;;;;;;;12.63;9.95;;;;;;;25.57;73.15;98772.44;5067313;28;20195;-56
2022/06/22 03:31:28;;;;;;;14.40;9.98;;;;;;;25.72;72.44;98770.09;5067092;28;20202;-56
2022/06/22 03:34:01;;;;;;;14.68;9.75;;;;;;;25.85;71.19;98767.78;5067280;28;20200;-56
2022/06/22 03:36:35;;;;;;;10.00;8.88;;;;;;;25.96;70.39;98767.53;5065857;28;20196;-56
2022/06/22 03:39:06;;;;;;;10.07;9.40;;;;;;;26.09;70.22;98769.72;5066605;28;20219;-56
2022/06/22 03:41:37;;;;;;;12.02;10.10;;;;;;;26.24;69.00;98774.28;5067490;28;20196;-57
2022/06/22 03:44:09;;;;;;;12.48;9.50;;;;;;;26.26;68.82;98774.97;5066994;28;20290;-57
2022/06/22 03:46:43;;;;;;;10.25;9.25;;;;;;;26.35;68.36;98774.03;5065334;28;20199;-57
2022/06/22 03:49:15;;;;;;;11.38;10.13;;;;;;;26.45;68.02;98773.88;5066399;28;20198;-56
2022/06/22 03:51:48;;;;;;;14.23;9.82;;;;;;;26.64;66.93;98778.88;5066097;28;20192;-56
2022/06/22 03:54:20;;;;;;;11.23;9.50;;;;;;;27.19;64.52;98770.31;5067156;28;20200;-55
2022/06/22 03:56:51;;;;;;;10.30;8.82;;;;;;;28.56;59.71;98778.88;5065726;28;20206;-57
2022/06/22 03:59:18;;;;;;;10.32;8.95;;;;;;;29.84;54.23;98791.34;5066484;28;20211;-56
2022/06/22 04:01:46;;;;;;;10.25;9.25;;;;;;;31.09;50.23;98800.09;5066554;28;20196;-57
2022/06/22 04:04:13;;;;;;;10.68;8.82;;;;;;;32.26;46.48;98803.84;5066239;28;20195;-57
2022/06/22 04:06:46;;;;;;;14.25;9.57;;;;;;;32.79;44.67;98794.09;5066426;28;20192;-57
2022/06/22 04:09:16;;;;;;;9.80;9.05;;;;;;;33.47;42.65;98791.28;5065612;28;20191;-56
2022/06/22 04:11:49;;;;;;;10.32;9.32;;;;;;;33.88;41.77;98797.22;5065651;28;20286;-55
2022/06/22 04:14:21;;;;;;;23.02;11.23;;;;;;;34.35;41.05;98794.41;5066154;28;20224;-56
2022/06/22 04:16:53;;;;;;;20.48;11.60;;;;;;;34.75;39.92;98795.03;5066368;28;20192;-56
2022/06/22 04:19:25;;;;;;;8.90;8.35;;;;;;;35.38;38.09;98787.75;5063570;28;20604;-56
2022/06/22 04:21:57;;;;;;;9.65;8.18;;;;;;;35.89;37.43;98787.47;5066319;28;20223;-56
2022/06/22 04:24:28;;;;;;;14.73;9.05;;;;;;;36.57;36.38;98781.88;5064810;28;20230;-56
2022/06/22 04:27:05;;;;;;;16.83;10.35;;;;;;;37.12;35.04;98781.72;5067839;28;20738;-56
2022/06/22 04:29:36;;;;;;;21.27;9.90;;;;;;;37.63;34.50;98793.81;5068142;28;20204;-57
2022/06/22 04:32:14;;;;;;;11.35;8.02;;;;;;;38.08;32.87;98810.28;5085753;28;20205;-56
2022/06/22 04:34:46;;;;;;;10.38;8.48;;;;;;;38.56;32.88;98804.50;5071107;28;20193;-57
2022/06/22 04:37:23;;;;;;;10.00;8.95;;;;;;;38.89;32.29;98809.19;5066872;28;20191;-57
2022/06/22 04:39:54;;;;;;;15.80;9.23;;;;;;;39.35;31.54;98812.69;5065514;28;20675;-56
2022/06/22 04:42:21;;;;;;;10.13;9.25;;;;;;;39.80;30.89;98815.31;5065505;28;20972;-56
2022/06/22 04:44:51;;;;;;;9.57;8.20;;;;;;;40.08;30.27;98801.56;5066559;28;20222;-55
2022/06/22 04:47:25;;;;;;;18.10;8.82;;;;;;;40.08;30.83;98808.91;5066014;28;20686;-57
2022/06/22 04:49:54;;;;;;;9.98;8.95;;;;;;;40.49;29.20;98805.66;5067237;28;20206;-57
2022/06/22 04:52:27;;;;;;;9.95;8.02;;;;;;;39.86;30.30;98817.88;5064342;28;20202;-56
2022/06/22 04:54:57;;;;;;;13.23;9.27;;;;;;;39.94;29.99;98821.25;5067450;28;20196;-56
2022/06/22 04:57:28;;;;;;;11.70;9.10;;;;;;;39.88;30.59;98828.50;5069023;28;20206;-57
2022/06/22 04:59:56;;;;;;;9.70;8.75;;;;;;;40.68;29.39;98818.91;5068072;28;20570;-56
2022/06/22 05:02:27;;;;;;;9.07;8.20;;;;;;;41.46;28.74;98831.09;5063428;28;20284;-56
2022/06/22 05:04:58;;;;;;;9.90;8.63;;;;;;;41.93;27.82;98831.16;5066683;28;20278;-56
2022/06/22 05:07:43;;;;;;;8.55;7.72;;;;;;;42.26;27.64;98832.72;5064348;28;20191;-57
2022/06/22 05:10:19;;;;;;;9.23;7.95;;;;;;;41.87;27.49;98834.97;5066538;28;20196;-57
2022/06/22 05:12:51;;;;;;;12.15;9.20;;;;;;;41.80;27.84;98839.81;5064238;28;20227;-56
2022/06/22 05:15:24;;;;;;;9.88;8.43;;;;;;;41.72;27.54;98826.69;5066172;28;20222;-56
2022/06/22 05:17:53;;;;;;;10.88;8.40;;;;;;;41.19;28.49;98848.34;5064843;28;20274;-56
2022/06/22 05:20:26;;;;;;;13.57;8.95;;;;;;;39.70;30.73;98853.22;5066117;28;20192;-57
2022/06/22 05:22:58;;;;;;;9.35;8.57;;;;;;;38.75;31.88;98849.34;5068462;28;20211;-57
2022/06/22 05:25:25;;;;;;;15.23;9.48;;;;;;;38.60;32.62;98854.50;5068684;28;20226;-56
2022/06/22 05:28:02;;;;;;;11.18;9.73;;;;;;;38.50;32.63;98840.69;5069688;28;20563;-56
2022/06/22 05:30:34;;;;;;;15.68;10.60;;;;;;;38.31;33.22;98858.19;5069350;28;20197;-57
2022/06/22 05:33:07;;;;;;;9.85;8.98;;;;;;;38.26;33.81;98856.22;5068084;28;20246;-57
2022/06/22 05:35:38;;;;;;;9.90;8.77;;;;;;;39.56;31.71;98858.97;5071041;28;20191;-57
2022/06/22 05:38:09;;;;;;;12.60;10.27;;;;;;;40.43;30.58;98862.94;5068649;28;20309;-57
2022/06/22 05:40:38;;;;;;;9.73;8.75;;;;;;;41.01;29.82;98865.00;5077967;28;20194;-58
2022/06/22 05:43:07;;;;;;;16.02;9.45;;;;;;;40.14;30.51;98854.97;5091247;28;20201;-58
2022/06/22 05:45:40;;;;;;;14.25;9.52;;;;;;;39.64;31.03;98857.72;5082443;28;20216;-57
2022/06/22 05:48:14;;;;;;;16.13;10.88;;;;;;;39.30;31.25;98856.88;5072027;28;20253;-58
2022/06/22 05:50:46;;;;;;;13.63;9.60;;;;;;;38.81;31.74;98859.25;5071770;28;20230;-58
2022/06/22 05:53:18;;;;;;;9.48;8.68;;;;;;;39.08;31.98;98855.94;5071942;28;20211;-58
2022/06/22 05:55:54;;;;;;;14.80;8.45;;;;;;;39.40;32.00;98865.19;5071659;28;20253;-58
2022/06/22 05:58:30;;;;;;;11.48;9.27;;;;;;;39.19;31.83;98857.78;5071286;28;20219;-58
2022/06/22 06:01:01;;;;;;;10.43;9.00;;;;;;;38.80;31.79;98864.91;5070030;28;20194;-57
2022/06/22 06:03:40;;;;;;;10.55;9.00;;;;;;;38.63;32.23;98859.41;5068816;28;20191;-57
2022/06/22 06:06:13;;;;;;;9.98;8.93;;;;;;;38.79;31.58;98857.84;5071489;28;20377;-57
2022/06/22 06:08:44;;;;;;;12.95;8.93;;;;;;;38.81;31.84;98859.25;5071432;28;20277;-57
2022/06/22 06:11:16;;;;;;;10.27;9.27;;;;;;;39.05;31.76;98853.75;5071536;28;20201;-57
2022/06/22 06:13:47;;;;;;;10.85;9.93;;;;;;;39.20;30.71;98862.13;5071272;28;20203;-56
2022/06/22 06:16:23;;;;;;;12.98;8.68;;;;;;;39.41;30.96;98856.00;5071315;28;20196;-56
2022/06/22 06:18:53;;;;;;;10.40;9.45;;;;;;;39.32;31.08;98846.59;5071487;28;20678;-56
2022/06/22 06:21:24;;;;;;;10.73;9.40;;;;;;;38.12;33.01;98858.34;5071319;28;20286;-57
2022/06/22 06:23:56;;;;;;;10.27;9.43;;;;;;;36.91;35.03;98841.78;5071326;28;20192;-57
2022/06/22 06:29:26;;;;;;;14.90;10.13;;;;;;;35.28;37.95;98844.94;5071280;28;20199;-57
2022/06/22 06:32:03;;;;;;;16.65;9.35;;;;;;;35.60;37.77;98837.59;5071237;28;20206;-56
2022/06/22 06:34:36;;;;;;;9.90;9.15;;;;;;;36.33;36.67;98855.81;5070916;28;20196;-57
2022/06/22 06:37:12;;;;;;;10.73;9.73;;;;;;;36.32;36.51;98840.66;5067898;28;20192;-58
2022/06/22 06:39:45;;;;;;;17.88;11.32;;;;;;;36.35;37.27;98843.72;5070186;28;20221;-57
2022/06/22 06:42:24;;;;;;;12.32;11.00;;;;;;;37.04;36.17;98833.44;5070450;28;20223;-57
2022/06/22 06:44:52;;;;;;;19.55;10.02;;;;;;;37.17;35.86;98838.69;5068803;28;20701;-58
2022/06/22 06:47:27;;;;;;;18.88;11.48;;;;;;;37.82;35.23;98840.53;5070191;28;20211;-57
2022/06/22 06:50:03;;;;;;;16.10;10.40;;;;;;;38.53;34.24;98832.09;5070099;28;20200;-57
2022/06/22 06:52:36;;;;;;;17.45;11.48;;;;;;;38.86;33.68;98831.38;5070205;28;20206;-57
2022/06/22 06:55:15;;;;;;;11.05;10.05;;;;;;;38.77;33.54;98816.56;5070094;28;20269;-58
2022/06/22 06:57:56;;;;;;;11.43;10.35;;;;;;;38.88;33.23;98836.56;5068333;28;20202;-58
2022/06/22 07:00:23;;;;;;;16.75;12.98;;;;;;;38.83;33.74;98832.66;5068795;28;20622;-58
2022/06/22 07:02:50;;;;;;;20.00;11.32;;;;;;;39.15;32.98;98837.63;5070831;28;20199;-58
2022/06/22 07:05:21;;;;;;;23.92;11.80;;;;;;;38.63;33.67;98831.47;5071227;28;20648;-58
2022/06/22 07:07:53;;;;;;;17.63;10.68;;;;;;;38.48;34.01;98842.84;5070933;28;20191;-58
2022/06/22 07:10:25;;;;;;;13.95;10.88;;;;;;;38.65;34.07;98842.91;5070985;28;20592;-57
2022/06/22 07:12:57;;;;;;;13.20;10.77;;;;;;;38.37;34.57;98843.69;5070455;28;20213;-58
2022/06/22 07:15:29;;;;;;;13.93;11.65;;;;;;;38.67;33.91;98844.31;5070426;28;20227;-57
2022/06/22 07:18:00;;;;;;;11.93;10.77;;;;;;;38.90;33.71;98848.81;5070419;28;20199;-57
2022/06/22 07:20:34;;;;;;;18.23;11.63;;;;;;;38.99;33.83;98852.81;5069978;28;20215;-58
2022/06/22 07:23:07;;;;;;;12.52;10.90;;;;;;;39.18;33.03;98835.22;5070296;28;20655;-58
2022/06/22 07:25:42;;;;;;;15.90;11.18;;;;;;;39.03;33.55;98855.88;5070714;28;20199;-59
2022/06/22 07:28:20;;;;;;;26.33;12.40;;;;;;;39.19;33.15;98845.00;5070608;28;20285;-57
2022/06/22 07:30:52;;;;;;;23.30;11.85;;;;;;;39.32;33.09;98835.72;5070630;28;20219;-57
2022/06/22 07:33:25;;;;;;;17.55;12.40;;;;;;;39.29;33.66;98849.78;5070598;28;20652;-57
2022/06/22 07:36:00;;;;;;;13.88;12.48;;;;;;;39.25;33.81;98845.94;5070191;28;20321;-58
2022/06/22 07:38:37;;;;;;;15.10;12.27;;;;;;;39.65;33.20;98862.09;5070207;28;20206;-57
2022/06/22 07:41:19;;;;;;;18.25;12.63;;;;;;;39.58;33.10;98856.00;5070345;28;20277;-57
2022/06/22 07:43:48;;;;;;;19.77;13.18;;;;;;;39.39;33.31;98852.69;5068846;28;20217;-56
2022/06/22 07:46:24;;;;;;;19.05;12.98;;;;;;;39.14;34.67;98844.13;5069824;28;20252;-55
2022/06/22 07:48:57;;;;;;;16.30;13.35;;;;;;;38.66;36.02;98844.56;5070193;28;20191;-55
2022/06/22 07:51:29;;;;;;;14.20;12.88;;;;;;;38.45;35.69;98846.00;5066306;28;20258;-56
2022/06/22 07:54:01;;;;;;;15.05;12.88;;;;;;;38.35;35.55;98860.19;5069849;28;20714;-54
2022/06/22 07:56:35;;;;;;;16.05;12.90;;;;;;;38.63;35.15;98854.00;5068990;28;20690;-55
2022/06/22 07:59:10;;;;;;;20.23;13.10;;;;;;;38.71;34.68;98853.63;5069084;28;20222;-55
2022/06/22 08:01:40;;;;;;;13.07;11.88;;;;;;;38.94;33.45;98854.59;5068399;28;20246;-55
2022/06/22 08:04:15;;;;;;;13.90;12.63;;;;;;;38.53;33.58;98848.38;5066793;28;20223;-55
2022/06/22 08:06:49;;;;;;;14.32;12.90;;;;;;;38.09;34.13;98836.31;5068847;28;20268;-54
2022/06/22 08:09:21;;;;;;;16.23;13.20;;;;;;;38.05;34.33;98841.34;5068979;28;20252;-55
2022/06/22 08:11:53;;;;;;;14.13;12.73;;;;;;;37.57;36.01;98843.47;5067003;28;20226;-55
2022/06/22 08:14:36;;;;;;;14.50;12.88;;;;;;;37.98;34.86;98845.25;5068561;28;20274;-55
2022/06/22 08:17:07;;;;;;;13.65;12.57;;;;;;;38.65;33.03;98851.88;5069540;28;20245;-54
2022/06/22 08:19:34;;;;;;;13.80;12.50;;;;;;;39.09;31.56;98852.16;5069329;28;20789;-58
2022/06/22 08:22:06;;;;;;;12.98;11.85;;;;;;;39.41;31.33;98855.19;5069288;28;20410;-58
2022/06/22 08:24:37;;;;;;;13.15;11.55;;;;;;;39.69;31.53;98857.81;5069110;28;20222;-58
2022/06/22 08:27:05;;;;;;;12.77;11.52;;;;;;;39.20;31.51;98854.81;5069809;28;20617;-57
2022/06/22 08:29:34;;;;;;;15.05;11.48;;;;;;;38.51;31.85;98850.47;5066724;28;20226;-57
2022/06/22 08:32:07;;;;;;;13.85;12.27;;;;;;;38.34;32.71;98849.59;5065904;28;20273;-57
2022/06/22 08:34:39;;;;;;;12.55;11.60;;;;;;;37.78;33.34;98849.16;5068184;28;20243;-57
2022/06/22 08:37:12;;;;;;;12.75;11.52;;;;;;;37.79;33.86;98845.41;5068906;28;20223;-57
2022/06/22 08:39:44;;;;;;;13.43;12.32;;;;;;;38.02;33.13;98852.69;5069455;28;20587;-59
2022/06/22 08:42:24;;;;;;;14.13;10.88;;;;;;;37.87;33.03;98844.19;5069862;28;20277;-57
2022/06/22 08:45:13;;;;;;;15.38;12.98;;;;;;;37.75;33.54;98849.63;5069879;28;20226;-55
2022/06/22 08:47:57;;;;;;;14.90;11.60;;;;;;;37.79;32.53;98845.41;5065331;28;20202;-56
2022/06/22 08:50:49;;;;;;;13.13;12.02;;;;;;;37.70;33.22;98849.50;5067525;28;20192;-55
2022/06/22 08:53:34;;;;;;;12.65;11.60;;;;;;;37.32;32.96;98855.31;5067358;28;20200;-56
2022/06/22 08:56:21;;;;;;;16.63;11.32;;;;;;;36.52;33.34;98833.13;5069563;28;20195;-54
2022/06/22 08:59:16;;;;;;;14.82;11.93;;;;;;;35.92;34.30;98857.25;5073090;28;20199;-55
2022/06/22 09:02:05;;;;;;;13.95;11.75;;;;;;;35.72;35.38;98856.59;5070660;28;20299;-55
2022/06/22 09:04:55;;;;;;;19.67;12.55;;;;;;;35.65;35.66;98845.88;5070985;28;20279;-57
2022/06/22 09:07:49;;;;;;;13.80;12.23;;;;;;;35.62;36.12;98842.78;5071854;28;20751;-57
2022/06/22 09:10:54;;;;;;;15.52;12.73;;;;;;;35.28;36.53;98825.22;5068781;28;20188;-57
2022/06/22 09:13:49;;;;;;;14.80;12.60;;;;;;;35.16;37.32;98819.66;5072029;28;20222;-56
2022/06/22 09:16:32;;;;;;;17.55;13.02;;;;;;;35.26;38.19;98809.25;5070755;28;20598;-56
2022/06/22 09:19:18;;;;;;;15.07;13.60;;;;;;;35.61;36.96;98816.81;5093347;28;20697;-57
2022/06/22 09:22:02;;;;;;;16.35;12.35;;;;;;;35.73;36.68;98811.53;5093136;28;20199;-57
2022/06/22 09:24:39;;;;;;;21.65;12.40;;;;;;;35.57;36.65;98804.81;5093497;28;20217;-57
2022/06/22 09:27:16;;;;;;;19.00;12.35;;;;;;;35.39;37.21;98807.47;5093414;28;20278;-57
2022/06/22 09:30:05;;;;;;;19.13;14.02;;;;;;;35.13;38.04;98798.50;5083156;28;20203;-57
2022/06/22 09:33:08;;;;;;;14.35;12.23;;;;;;;34.82;39.01;98796.66;5072699;28;20207;-57
2022/06/22 09:35:49;;;;;;;14.80;12.27;;;;;;;34.63;39.61;98792.19;5062701;28;20203;-57
2022/06/22 09:38:57;;;;;;;22.80;13.23;;;;;;;34.56;39.58;98796.78;5070330;28;20210;-55
2022/06/22 09:41:38;;;;;;;19.98;12.70;;;;;;;34.36;39.55;98791.50;5069770;28;20195;-55
2022/06/22 09:44:37;;;;;;;23.58;21.05;;;;;;;34.15;41.58;98781.00;5069939;28;20246;-55
2022/06/22 09:47:34;;;;;;;28.92;23.77;;;;;;;33.95;43.54;98778.38;5068129;28;20668;-55
2022/06/22 09:50:25;;;;;;;18.98;16.98;;;;;;;33.77;43.53;98788.97;5037024;28;20283;-56
2022/06/22 09:53:21;;;;;;;19.05;16.08;;;;;;;33.44;44.43;98797.06;5070599;28;20196;-55
2022/06/22 09:59:11;;;;;;;18.17;15.35;;;;;;;33.02;44.78;98780.28;5069459;28;20322;-55
2022/06/22 10:01:46;;;;;;;25.80;14.48;;;;;;;32.86;44.51;98780.66;5070455;28;20200;-56
2022/06/22 10:04:54;;;;;;;15.57;13.80;;;;;;;32.87;47.00;98774.25;5070741;28;20663;-55
2022/06/22 10:07:40;;;;;;;16.70;13.82;;;;;;;32.89;48.89;98771.38;5031738;28;20597;-57
2022/06/22 10:10:20;;;;;;;15.88;13.57;;;;;;;33.22;46.82;98771.38;5070219;28;20280;-56
2022/06/22 10:13:23;;;;;;;21.50;14.35;;;;;;;33.71;44.73;98777.16;5069131;28;20238;-56
2022/06/22 10:16:21;;;;;;;17.05;15.55;;;;;;;33.91;43.62;98770.94;5069768;28;20258;-56
2022/06/22 10:19:08;;;;;;;21.10;15.48;;;;;;;34.18;43.52;98772.50;5070083;28;20196;-56
2022/06/22 10:21:47;;;;;;;21.17;15.77;;;;;;;34.28;42.56;98772.91;5067922;28;20188;-56
2022/06/22 10:24:40;;;;;;;15.65;13.90;;;;;;;34.09;41.92;98771.06;5069819;28;20214;-56
2022/06/22 10:27:32;;;;;;;13.40;12.30;;;;;;;33.86;40.61;98767.00;5069141;28;20291;-55
2022/06/22 10:30:19;;;;;;;14.60;12.95;;;;;;;33.87;41.11;98754.34;5068932;28;20291;-55
2022/06/22 10:33:16;;;;;;;16.52;13.57;;;;;;;34.07;41.11;98767.78;5068310;28;20202;-56
2022/06/22 10:36:14;;;;;;;15.13;12.93;;;;;;;34.17;39.62;98779.75;5069574;28;20196;-56
2022/06/22 10:39:09;;;;;;;16.05;14.55;;;;;;;34.18;40.19;98770.63;5056377;28;20614;-56
2022/06/22 10:45:14;;;;;;;12.60;11.50;;;;;;;33.79;38.13;98779.66;5070219;28;20608;-55
2022/06/22 10:48:30;;;;;;;13.10;10.38;;;;;;;33.39;37.86;98778.88;5057494;28;20647;-56
2022/06/22 10:51:07;;;;;;;15.27;10.80;;;;;;;33.10;39.05;98790.00;5068441;28;20208;-55
2022/06/22 10:53:53;;;;;;;11.95;10.90;;;;;;;32.82;40.69;98787.50;5071130;28;20286;-57
2022/06/22 10:56:53;;;;;;;20.65;13.35;;;;;;;32.59;41.53;98787.00;5071477;28;20590;-57
2022/06/22 10:59:53;;;;;;;14.20;12.55;;;;;;;32.35;42.22;98796.44;5071067;28;20279;-57
2022/06/22 11:02:56;;;;;;;22.02;13.32;;;;;;;32.19;42.73;98794.91;5069962;28;20304;-57
2022/06/22 11:05:42;;;;;;;16.52;13.35;;;;;;;32.04;43.25;98788.84;5071056;28;20201;-56
2022/06/22 11:08:38;;;;;;;18.20;13.18;;;;;;;31.88;43.64;98783.78;5070258;28;20198;-55
2022/06/22 11:11:19;;;;;;;20.60;13.32;;;;;;;31.70;44.60;98784.31;5069933;28;20194;-58
2022/06/22 11:14:35;;;;;;;17.35;13.20;;;;;;;31.53;45.37;98789.09;5069864;28;20603;-57
2022/06/22 11:17:23;;;;;;;17.25;12.95;;;;;;;31.25;47.21;98789.13;5069834;28;20860;-57
2022/06/22 11:20:14;;;;;;;17.73;13.30;;;;;;;31.09;48.61;98800.09;5067034;28;20802;-57
2022/06/22 11:22:47;;;;;;;18.67;12.70;;;;;;;31.01;50.14;98781.44;5069728;28;20282;-58
2022/06/22 11:32:28;;;;;;;15.48;13.93;;;;;;;30.81;54.17;98775.91;4988236;28;20257;-57
2022/06/22 11:35:18;;;;;;;14.93;13.02;;;;;;;31.04;52.37;98768.47;5068695;28;20195;-56
2022/06/22 11:37:56;;;;;;;16.65;12.77;;;;;;;31.29;51.80;98771.59;5067047;28;20191;-57
2022/06/22 11:40:50;;;;;;;14.50;12.77;;;;;;;31.69;50.96;98775.44;5069847;28;20207;-55
2022/06/22 11:43:48;;;;;;;15.75;14.13;;;;;;;32.12;49.76;98785.97;5068823;28;20588;-57
2022/06/22 11:46:21;;;;;;;16.77;13.27;;;;;;;32.25;49.05;98795.97;5068569;28;20240;-57
2022/06/22 11:49:23;;;;;;;15.75;11.57;;;;;;;32.54;48.46;98806.41;5067250;28;20189;-58
2022/06/22 11:52:25;;;;;;;16.92;11.27;;;;;;;32.84;46.98;98801.56;5067434;28;20582;-56
2022/06/22 11:54:59;;;;;;;15.30;10.85;;;;;;;33.03;46.30;98794.56;5067847;28;20196;-57
2022/06/22 11:58:09;;;;;;;11.57;9.98;;;;;;;32.92;44.69;98804.06;5067047;28;20198;-56
2022/06/22 12:00:47;;;;;;;13.55;8.25;;;;;;;32.81;42.64;98807.34;5069727;28;20632;-57
2022/06/22 12:03:46;;;;;;;9.77;8.13;;;;;;;32.68;42.45;98818.03;5068080;28;20278;-57
2022/06/22 12:06:32;;;;;;;10.77;8.27;;;;;;;32.28;44.00;98811.69;5068539;28;20263;-58
2022/06/22 12:09:22;;;;;;;12.40;7.90;;;;;;;32.31;44.05;98804.06;5068738;28;20686;-57
2022/06/22 12:12:09;;;;;;;13.45;8.40;;;;;;;32.32;44.50;98791.44;5062051;28;20663;-57
2022/06/22 12:15:09;;;;;;;12.32;7.53;;;;;;;32.43;43.14;98799.75;5089667;28;20234;-58
2022/06/22 12:18:12;;;;;;;12.48;8.55;;;;;;;32.34;43.67;98779.50;5090097;28;20203;-57
2022/06/22 12:20:51;;;;;;;18.08;11.13;;;;;;;32.37;47.16;98780.94;5090435;28;20222;-58
2022/06/22 12:23:39;;;;;;;13.30;11.95;;;;;;;32.43;50.00;98785.50;5090091;28;20205;-58
2022/06/22 12:26:25;;;;;;;14.80;12.93;;;;;;;32.32;50.07;98778.03;5090197;28;20222;-58
2022/06/22 12:29:25;;;;;;;15.20;12.80;;;;;;;32.32;50.85;98780.72;5089973;28;20231;-56
2022/06/22 12:31:57;;;;;;;15.98;12.30;;;;;;;31.95;51.63;98798.06;5092664;28;20201;-58